createdAt,value
2022-08-17T00:01:53.446Z,47.10
2022-08-17T00:04:24.085Z,47.10
2022-08-17T00:06:50.595Z,47.10
2022-08-17T00:09:19.005Z,47.10
2022-08-17T00:12:43.430Z,47.00
2022-08-17T00:14:32.450Z,47.00
2022-08-17T00:16:58.994Z,47.10
2022-08-17T00:19:25.516Z,47.00
2022-08-17T00:22:32.987Z,47.10
2022-08-17T00:24:38.544Z,47.10
2022-08-17T00:27:05.074Z,47.10
2022-08-17T00:29:36.301Z,47.10
2022-08-17T00:33:23.147Z,47.10
2022-08-17T00:34:49.362Z,47.10
2022-08-17T00:37:18.096Z,47.10
2022-08-17T00:39:44.662Z,47.10
2022-08-17T00:42:11.217Z,47.10
2022-08-17T00:44:37.738Z,47.10
2022-08-17T00:47:04.273Z,47.10
2022-08-17T00:49:30.795Z,47.10
2022-08-17T00:51:57.327Z,47.00
2022-08-17T00:54:23.844Z,47.10
2022-08-17T00:56:50.369Z,47.10
2022-08-17T00:59:16.887Z,47.10
2022-08-17T01:01:43.406Z,47.10
2022-08-17T01:04:09.932Z,47.10
2022-08-17T01:06:36.464Z,47.10
2022-08-17T01:09:03.030Z,47.10
2022-08-17T01:11:29.559Z,47.10
2022-08-17T01:13:56.102Z,47.10
2022-08-17T01:16:22.634Z,47.10
2022-08-17T01:18:49.161Z,47.00
2022-08-17T01:21:15.684Z,47.00
2022-08-17T01:23:42.208Z,47.10
2022-08-17T01:26:08.741Z,47.10
2022-08-17T01:28:54.348Z,47.10
2022-08-17T01:31:21.755Z,47.10
2022-08-17T01:33:48.296Z,47.20
2022-08-17T01:36:14.829Z,47.20
2022-08-17T01:38:41.348Z,47.30
2022-08-17T01:41:07.881Z,47.30
2022-08-17T01:43:34.404Z,47.20
2022-08-17T01:46:03.598Z,47.30
2022-08-17T01:48:30.432Z,47.40
2022-08-17T01:50:56.995Z,47.40
2022-08-17T01:53:23.519Z,47.30
2022-08-17T01:55:50.070Z,47.30
2022-08-17T01:58:16.592Z,47.30
2022-08-17T02:00:46.881Z,47.30
2022-08-17T02:03:26.924Z,47.30
2022-08-17T02:05:53.471Z,47.30
2022-08-17T02:08:20.349Z,47.30
2022-08-17T02:10:47.014Z,47.20
2022-08-17T02:13:18.383Z,47.30
2022-08-17T02:15:44.955Z,47.30
2022-08-17T02:18:11.497Z,47.40
2022-08-17T02:20:42.589Z,47.30
2022-08-17T02:23:09.413Z,47.40
2022-08-17T02:25:35.950Z,47.40
2022-08-17T02:28:02.467Z,47.40
2022-08-17T02:31:01.021Z,47.40
2022-08-17T02:33:15.526Z,47.50
2022-08-17T02:35:42.054Z,47.60
2022-08-17T02:38:08.580Z,47.50
2022-08-17T02:40:36.158Z,47.60
2022-08-17T02:43:03.022Z,47.60
2022-08-17T02:45:29.649Z,47.60
2022-08-17T02:47:56.164Z,47.60
2022-08-17T02:50:22.704Z,47.60
2022-08-17T02:53:01.362Z,47.60
2022-08-17T02:55:29.228Z,47.60
2022-08-17T02:57:55.734Z,47.60
2022-08-17T03:00:22.279Z,47.60
2022-08-17T03:02:48.971Z,47.60
2022-08-17T03:05:15.692Z,47.60
2022-08-17T03:07:48.324Z,48.30
2022-08-17T03:10:14.894Z,47.60
2022-08-17T03:12:42.276Z,47.60
2022-08-17T03:15:08.815Z,47.60
2022-08-17T03:17:35.343Z,47.60
2022-08-17T03:20:01.888Z,47.60
2022-08-17T03:22:37.197Z,47.80
2022-08-17T03:25:05.036Z,47.80
2022-08-17T03:27:37.252Z,47.80
2022-08-17T03:30:06.027Z,47.80
2022-08-17T03:32:32.612Z,47.80
2022-08-17T03:34:59.133Z,47.80
2022-08-17T03:37:25.664Z,47.80
2022-08-17T03:39:52.254Z,47.80
2022-08-17T03:42:32.015Z,47.80
2022-08-17T03:44:59.390Z,47.80
2022-08-17T03:47:25.901Z,47.90
2022-08-17T03:49:52.408Z,47.90
2022-08-17T03:52:18.936Z,47.90
2022-08-17T03:54:48.376Z,47.80
2022-08-17T03:57:14.892Z,47.80
2022-08-17T03:59:41.402Z,47.80
2022-08-17T04:02:07.947Z,47.80
2022-08-17T04:04:34.465Z,47.80
2022-08-17T04:07:01.002Z,48.00
2022-08-17T04:09:27.513Z,48.00
2022-08-17T04:11:54.054Z,48.00
2022-08-17T04:14:20.580Z,48.00
2022-08-17T04:16:47.139Z,48.00
2022-08-17T04:19:13.664Z,48.10
2022-08-17T04:21:40.212Z,48.10
2022-08-17T04:24:06.749Z,48.10
2022-08-17T04:26:53.598Z,48.10
2022-08-17T04:29:19.777Z,48.10
2022-08-17T04:31:46.318Z,48.10
2022-08-17T04:34:12.838Z,48.00
2022-08-17T04:36:39.362Z,48.10
2022-08-17T04:39:05.905Z,48.10
2022-08-17T04:41:32.443Z,48.20
2022-08-17T04:43:58.964Z,48.20
2022-08-17T04:46:25.488Z,48.20
2022-08-17T04:48:52.019Z,48.10
2022-08-17T04:51:18.524Z,48.20
2022-08-17T04:53:45.043Z,48.20
2022-08-17T04:56:16.682Z,48.10
2022-08-17T04:58:43.632Z,48.10
2022-08-17T05:01:10.177Z,48.00
2022-08-17T05:03:36.772Z,48.00
2022-08-17T05:06:03.308Z,48.10
2022-08-17T05:08:29.878Z,48.10
2022-08-17T05:10:56.403Z,48.00
2022-08-17T05:13:22.924Z,48.00
2022-08-17T05:15:49.448Z,48.00
2022-08-17T05:18:15.998Z,47.90
2022-08-17T05:20:42.538Z,47.90
2022-08-17T05:23:09.089Z,48.10
2022-08-17T05:25:36.218Z,48.10
2022-08-17T05:28:06.344Z,48.10
2022-08-17T05:30:32.870Z,48.20
2022-08-17T05:32:59.392Z,48.20
2022-08-17T05:35:25.940Z,48.20
2022-08-17T05:37:52.449Z,48.10
2022-08-17T05:40:19.390Z,48.10
2022-08-17T05:42:45.950Z,48.10
2022-08-17T05:45:12.514Z,48.10
2022-08-17T05:47:42.572Z,48.10
2022-08-17T05:50:12.343Z,48.10
2022-08-17T05:52:44.672Z,48.10
2022-08-17T05:55:11.208Z,48.10
2022-08-17T05:57:39.867Z,48.10
2022-08-17T06:00:14.125Z,48.00
2022-08-17T06:02:45.577Z,48.00
2022-08-17T06:05:14.147Z,48.00
2022-08-17T06:07:40.661Z,48.00
2022-08-17T06:10:07.193Z,48.00
2022-08-17T06:12:33.724Z,47.90
2022-08-17T06:15:00.535Z,48.00
2022-08-17T06:17:27.058Z,47.90
2022-08-17T06:19:53.590Z,48.00
2022-08-17T06:22:20.139Z,47.70
2022-08-17T06:24:46.671Z,47.60
2022-08-17T06:27:13.201Z,47.60
2022-08-17T06:29:39.721Z,47.70
2022-08-17T06:32:06.232Z,47.80
2022-08-17T06:34:32.741Z,47.80
2022-08-17T06:37:01.107Z,47.80
2022-08-17T06:39:30.351Z,47.80
2022-08-17T06:41:56.896Z,47.80
2022-08-17T06:44:49.753Z,47.70
2022-08-17T06:47:09.938Z,47.70
2022-08-17T06:49:36.497Z,47.70
2022-08-17T06:52:03.018Z,47.60
2022-08-17T06:54:29.583Z,47.60
2022-08-17T06:56:56.102Z,47.60
2022-08-17T06:59:22.668Z,47.60
2022-08-17T07:01:49.195Z,47.70
2022-08-17T07:04:15.711Z,47.80
2022-08-17T07:06:42.260Z,47.80
2022-08-17T07:09:08.784Z,47.70
2022-08-17T07:11:35.304Z,47.80
2022-08-17T07:14:01.833Z,47.70
2022-08-17T07:16:28.379Z,47.70
2022-08-17T07:18:54.945Z,47.60
2022-08-17T07:21:25.824Z,47.60
2022-08-17T07:23:53.084Z,47.70
2022-08-17T07:26:19.607Z,47.70
2022-08-17T07:28:46.128Z,47.70
2022-08-17T07:31:12.647Z,47.70
2022-08-17T07:33:39.157Z,47.70
2022-08-17T07:36:05.679Z,47.80
2022-08-17T07:38:32.202Z,47.70
2022-08-17T07:40:58.741Z,47.60
2022-08-17T07:43:25.258Z,47.60
2022-08-17T07:45:51.794Z,47.50
2022-08-17T07:48:18.315Z,47.50
2022-08-17T07:50:49.312Z,47.60
2022-08-17T07:53:18.399Z,47.50
2022-08-17T07:55:44.924Z,47.50
2022-08-17T07:58:11.465Z,47.60
2022-08-17T08:00:37.999Z,47.50
2022-08-17T08:03:04.767Z,47.50
2022-08-17T08:05:49.695Z,47.50
2022-08-17T08:08:16.986Z,47.50
2022-08-17T08:10:45.259Z,47.50
2022-08-17T08:13:14.084Z,47.50
2022-08-17T08:15:41.006Z,47.50
2022-08-17T08:18:11.789Z,47.50
2022-08-17T08:20:51.698Z,47.40
2022-08-17T08:23:20.134Z,47.50
2022-08-17T08:25:49.712Z,47.50
2022-08-17T08:28:19.949Z,48.10
2022-08-17T08:30:46.480Z,47.40
2022-08-17T08:33:13.016Z,47.50
2022-08-17T08:35:39.582Z,47.50
2022-08-17T08:38:06.094Z,47.50
2022-08-17T08:40:32.635Z,47.50
2022-08-17T08:42:59.157Z,47.50
2022-08-17T08:45:25.691Z,47.50
2022-08-17T08:47:52.429Z,47.50
2022-08-17T08:50:37.039Z,47.50
2022-08-17T08:53:04.870Z,47.50
2022-08-17T08:55:32.610Z,47.50
2022-08-17T08:57:59.147Z,47.50
2022-08-17T09:00:25.693Z,47.50
2022-08-17T09:02:52.215Z,47.50
2022-08-17T09:05:18.726Z,47.40
2022-08-17T09:07:45.276Z,47.50
2022-08-17T09:10:11.841Z,47.40
2022-08-17T09:12:38.378Z,47.50
2022-08-17T09:15:07.212Z,47.40
2022-08-17T09:17:37.428Z,47.50
2022-08-17T09:20:03.944Z,47.40
2022-08-17T09:22:30.480Z,47.60
2022-08-17T09:24:57.021Z,47.40
2022-08-17T09:27:23.561Z,47.50
2022-08-17T09:29:50.084Z,47.50
2022-08-17T09:32:16.613Z,47.50
2022-08-17T09:34:43.635Z,47.40
2022-08-17T09:37:13.613Z,47.50
2022-08-17T09:39:40.173Z,47.50
2022-08-17T09:42:06.717Z,47.60
2022-08-17T09:44:33.239Z,47.50
2022-08-17T09:46:59.759Z,47.50
2022-08-17T09:49:26.273Z,47.50
2022-08-17T09:51:52.801Z,47.60
2022-08-17T09:54:37.937Z,47.50
2022-08-17T09:57:27.809Z,47.60
2022-08-17T09:59:51.917Z,47.60
2022-08-17T10:02:18.471Z,47.60
2022-08-17T10:04:45.005Z,47.60
2022-08-17T10:07:11.544Z,47.70
2022-08-17T10:09:38.072Z,47.70
2022-08-17T10:12:04.609Z,47.70
2022-08-17T10:14:37.553Z,47.80
2022-08-17T10:17:10.275Z,47.80
2022-08-17T10:19:36.805Z,47.80
2022-08-17T10:22:26.428Z,47.80
2022-08-17T10:25:21.661Z,47.80
2022-08-17T10:27:36.329Z,47.80
2022-08-17T10:30:02.842Z,47.80
2022-08-17T10:32:29.363Z,47.90
2022-08-17T10:34:55.885Z,47.80
2022-08-17T10:37:22.413Z,47.80
2022-08-17T10:39:52.752Z,47.80
2022-08-17T10:42:30.812Z,47.80
2022-08-17T10:44:59.411Z,48.00
2022-08-17T10:47:25.962Z,47.80
2022-08-17T10:49:54.580Z,47.90
2022-08-17T10:52:21.122Z,47.90
2022-08-17T10:54:47.638Z,47.90
2022-08-17T10:57:14.173Z,47.90
2022-08-17T10:59:40.693Z,47.90
2022-08-17T11:02:07.225Z,48.00
2022-08-17T11:04:33.752Z,48.00
2022-08-17T11:07:00.273Z,47.90
2022-08-17T11:09:26.789Z,48.00
2022-08-17T11:11:53.331Z,48.00
2022-08-17T11:14:19.864Z,48.00
2022-08-17T11:16:46.412Z,48.00
2022-08-17T11:19:12.935Z,48.10
2022-08-17T11:21:39.452Z,48.10
2022-08-17T11:24:06.151Z,48.00
2022-08-17T11:26:32.681Z,48.00
2022-08-17T11:28:59.188Z,48.00
2022-08-17T11:31:38.787Z,48.10
2022-08-17T11:34:06.216Z,48.10
2022-08-17T11:36:36.653Z,48.20
2022-08-17T11:39:03.168Z,48.30
2022-08-17T11:41:29.695Z,48.30
2022-08-17T11:43:56.218Z,48.40
2022-08-17T11:46:22.737Z,48.40
2022-08-17T11:48:49.253Z,48.50
2022-08-17T11:51:15.767Z,48.40
2022-08-17T11:53:42.301Z,48.50
2022-08-17T11:56:08.815Z,48.50
2022-08-17T11:58:35.339Z,48.50
2022-08-17T12:01:01.882Z,48.60
2022-08-17T12:03:28.539Z,48.60
2022-08-17T12:05:55.146Z,48.70
2022-08-17T12:08:21.687Z,48.50
2022-08-17T12:10:48.224Z,48.60
2022-08-17T12:13:14.743Z,48.70
2022-08-17T12:15:41.263Z,48.70
2022-08-17T12:18:07.769Z,48.70
2022-08-17T12:20:34.304Z,48.60
2022-08-17T12:23:00.825Z,48.80
2022-08-17T12:25:27.339Z,48.70
2022-08-17T12:28:06.852Z,48.70
2022-08-17T12:30:33.851Z,48.70
2022-08-17T12:33:00.365Z,48.80
2022-08-17T12:35:26.876Z,48.80
2022-08-17T12:37:53.403Z,48.90
2022-08-17T12:40:19.938Z,49.60
2022-08-17T12:42:46.514Z,48.80
2022-08-17T12:45:13.024Z,48.70
2022-08-17T12:47:39.564Z,48.70
2022-08-17T12:50:06.175Z,48.80
2022-08-17T12:52:32.750Z,48.80
2022-08-17T12:54:59.258Z,49.20
2022-08-17T12:57:25.789Z,48.70
2022-08-17T12:59:52.328Z,48.70
2022-08-17T13:02:18.882Z,48.70
2022-08-17T13:04:45.432Z,48.80
2022-08-17T13:07:11.978Z,48.70
2022-08-17T13:09:40.487Z,48.80
2022-08-17T13:12:07.675Z,48.70
2022-08-17T13:14:34.357Z,48.70
2022-08-17T13:17:00.878Z,48.60
2022-08-17T13:19:38.855Z,48.60
2022-08-17T13:22:07.818Z,48.60
2022-08-17T13:24:38.374Z,48.50
2022-08-17T13:27:08.037Z,48.60
2022-08-17T13:29:34.847Z,48.60
2022-08-17T13:32:04.220Z,48.50
2022-08-17T13:34:31.551Z,48.50
2022-08-17T13:36:59.892Z,48.50
2022-08-17T13:39:26.441Z,48.20
2022-08-17T13:41:53.035Z,48.50
2022-08-17T13:44:19.582Z,48.70
2022-08-17T13:46:46.109Z,48.20
2022-08-17T13:49:18.962Z,48.40
2022-08-17T13:51:45.487Z,48.50
2022-08-17T13:54:12.009Z,48.40
2022-08-17T13:56:39.594Z,48.40
2022-08-17T13:59:06.318Z,48.70
2022-08-17T14:01:32.950Z,48.90
2022-08-17T14:03:59.502Z,48.00
2022-08-17T14:06:53.218Z,48.70
2022-08-17T14:09:12.562Z,48.60
2022-08-17T14:11:39.109Z,48.90
2022-08-17T14:14:05.641Z,48.40
2022-08-17T14:16:32.203Z,48.60
2022-08-17T14:18:58.733Z,48.40
2022-08-17T14:21:25.285Z,48.60
2022-08-17T14:23:54.949Z,49.00
2022-08-17T14:26:21.657Z,48.80
2022-08-17T14:28:56.511Z,48.90
2022-08-17T14:31:23.602Z,48.90
2022-08-17T14:33:50.149Z,49.10
2022-08-17T14:36:16.680Z,48.40
2022-08-17T14:38:43.213Z,49.00
2022-08-17T14:41:09.711Z,49.20
2022-08-17T14:43:36.239Z,49.20
2022-08-17T14:46:02.750Z,49.20
2022-08-17T14:48:29.264Z,49.30
2022-08-17T14:50:55.791Z,48.70
2022-08-17T14:53:22.326Z,49.30
2022-08-17T14:55:54.802Z,50.10
2022-08-17T14:58:21.321Z,49.60
2022-08-17T15:00:47.847Z,49.50
2022-08-17T15:03:14.367Z,50.60
2022-08-17T15:05:40.892Z,49.00
2022-08-17T15:08:07.413Z,50.30
2022-08-17T15:10:33.926Z,48.70
2022-08-17T15:13:00.560Z,50.60
2022-08-17T15:15:27.158Z,49.10
2022-08-17T15:17:53.670Z,50.00
2022-08-17T15:20:20.201Z,49.90
2022-08-17T15:22:46.722Z,48.70
2022-08-17T15:25:13.236Z,49.80
2022-08-17T15:27:39.758Z,50.30
2022-08-17T15:30:07.269Z,50.20
2022-08-17T15:32:33.932Z,50.40
2022-08-17T15:35:00.455Z,50.70
2022-08-17T15:37:26.973Z,49.60
2022-08-17T15:39:53.567Z,50.80
2022-08-17T15:42:20.093Z,50.50
2022-08-17T15:44:46.615Z,51.00
2022-08-17T15:47:19.047Z,50.60
2022-08-17T15:49:45.572Z,51.30
2022-08-17T15:52:12.093Z,50.40
2022-08-17T15:54:38.621Z,50.80
2022-08-17T15:57:05.531Z,51.00
2022-08-17T15:59:32.050Z,50.70
2022-08-17T16:03:01.401Z,50.40
2022-08-17T16:04:45.171Z,51.10
2022-08-17T16:07:14.194Z,51.40
2022-08-17T16:09:40.802Z,51.10
2022-08-17T16:12:07.329Z,51.00
2022-08-17T16:14:34.917Z,51.60
2022-08-17T16:17:01.814Z,51.50
2022-08-17T16:19:28.350Z,51.40
2022-08-17T16:21:54.861Z,50.00
2022-08-17T16:24:21.396Z,50.40
2022-08-17T16:26:47.929Z,50.70
2022-08-17T16:29:14.460Z,51.50
2022-08-17T16:31:40.997Z,51.70
2022-08-17T16:34:17.899Z,50.70
2022-08-17T16:36:53.765Z,50.80
2022-08-17T16:39:22.405Z,51.40
2022-08-17T16:41:48.916Z,50.10
2022-08-17T16:44:15.745Z,51.20
2022-08-17T16:46:45.480Z,50.50
2022-08-17T16:49:13.507Z,50.90
2022-08-17T16:51:59.417Z,50.40
2022-08-17T16:54:25.960Z,51.20
2022-08-17T16:56:52.488Z,51.60
2022-08-17T16:59:30.744Z,52.20
2022-08-17T17:01:58.856Z,51.50
2022-08-17T17:04:25.396Z,52.30
2022-08-17T17:06:51.941Z,51.10
2022-08-17T17:09:18.448Z,51.20
2022-08-17T17:11:45.005Z,51.80
2022-08-17T17:14:11.533Z,52.30
2022-08-17T17:16:38.293Z,50.70
2022-08-17T17:19:05.702Z,51.80
2022-08-17T17:21:32.218Z,51.90
2022-08-17T17:23:58.754Z,51.40
2022-08-17T17:26:25.313Z,52.30
2022-08-17T17:28:51.828Z,52.50
2022-08-17T17:31:18.384Z,52.20
2022-08-17T17:33:44.915Z,52.70
2022-08-17T17:36:11.478Z,52.50
2022-08-17T17:38:38.009Z,52.30
2022-08-17T17:41:04.583Z,52.80
2022-08-17T17:43:40.605Z,52.30
2022-08-17T17:46:27.942Z,52.30
2022-08-17T17:48:54.013Z,52.40
2022-08-17T17:52:09.042Z,52.50
2022-08-17T17:54:07.044Z,52.70
2022-08-17T17:56:43.713Z,52.40
2022-08-17T17:59:12.952Z,52.80
2022-08-17T18:01:39.679Z,52.80
2022-08-17T18:04:17.033Z,53.20
2022-08-17T18:06:46.947Z,52.80
2022-08-17T18:09:20.085Z,52.70
2022-08-17T18:11:51.373Z,53.10
2022-08-17T18:14:18.172Z,52.80
2022-08-17T18:16:44.705Z,52.80
2022-08-17T18:19:11.210Z,53.10
2022-08-17T18:21:37.747Z,53.30
2022-08-17T18:24:04.298Z,53.30
2022-08-17T18:26:30.836Z,53.30
2022-08-17T18:28:58.681Z,53.60
2022-08-17T18:31:25.235Z,53.30
2022-08-17T18:33:51.772Z,51.80
2022-08-17T18:36:18.315Z,51.10
2022-08-17T18:38:44.840Z,51.00
2022-08-17T18:41:11.371Z,51.00
2022-08-17T18:43:52.854Z,51.00
2022-08-17T18:46:28.765Z,50.80
2022-08-17T18:48:56.116Z,50.70
2022-08-17T18:51:37.257Z,50.50
2022-08-17T18:54:13.159Z,50.30
2022-08-17T18:56:39.678Z,50.30
2022-08-17T18:59:06.204Z,50.20
2022-08-17T19:01:47.011Z,50.20
2022-08-17T19:04:19.214Z,50.20
2022-08-17T19:06:45.749Z,50.20
2022-08-17T19:09:12.280Z,50.20
2022-08-17T19:11:38.817Z,50.40
2022-08-17T19:14:05.331Z,50.30
2022-08-17T19:16:31.870Z,50.30
2022-08-17T19:18:58.387Z,50.50
2022-08-17T19:21:24.910Z,50.40
2022-08-17T19:23:53.967Z,50.30
2022-08-17T19:26:54.393Z,50.30
2022-08-17T19:29:07.513Z,50.40
2022-08-17T19:31:36.269Z,50.90
2022-08-17T19:34:02.800Z,50.70
2022-08-17T19:36:29.306Z,50.90
2022-08-17T19:38:55.832Z,50.80
2022-08-17T19:41:22.353Z,50.60
2022-08-17T19:43:48.883Z,50.50
2022-08-17T19:46:15.416Z,50.80
2022-08-17T19:48:41.944Z,50.60
2022-08-17T19:51:08.463Z,50.60
2022-08-17T19:54:01.755Z,50.70
2022-08-17T19:56:21.498Z,50.60
2022-08-17T19:58:48.023Z,50.80
2022-08-17T20:01:14.740Z,50.70
2022-08-17T20:03:41.322Z,50.50
2022-08-17T20:06:15.066Z,50.80
2022-08-17T20:08:41.654Z,50.60
2022-08-17T20:11:08.191Z,50.70
2022-08-17T20:13:34.730Z,51.00
2022-08-17T20:16:01.260Z,51.00
2022-08-17T20:18:27.806Z,51.10
2022-08-17T20:20:54.922Z,51.50
2022-08-17T20:23:22.404Z,51.80
2022-08-17T20:25:48.908Z,51.60
2022-08-17T20:28:15.440Z,51.30
2022-08-17T20:30:42.625Z,51.50
2022-08-17T20:33:09.158Z,51.50
2022-08-17T20:35:39.759Z,51.50
2022-08-17T20:38:06.285Z,51.70
2022-08-17T20:40:32.799Z,51.70
2022-08-17T20:43:01.037Z,51.90
2022-08-17T20:45:27.589Z,51.80
2022-08-17T20:48:16.017Z,51.70
2022-08-17T20:50:40.621Z,51.60
2022-08-17T20:53:07.158Z,51.80
2022-08-17T20:55:33.684Z,51.70
2022-08-17T20:58:00.194Z,52.20
2022-08-17T21:00:26.711Z,52.00
2022-08-17T21:02:53.239Z,52.00
2022-08-17T21:05:19.752Z,52.20
2022-08-17T21:07:46.284Z,52.10
2022-08-17T21:10:12.813Z,52.20
2022-08-17T21:12:39.336Z,52.00
2022-08-17T21:15:05.841Z,51.90
2022-08-17T21:17:32.373Z,51.90
2022-08-17T21:20:14.028Z,52.00
2022-08-17T21:22:40.555Z,52.10
2022-08-17T21:25:07.081Z,52.30
2022-08-17T21:27:33.600Z,52.30
2022-08-17T21:30:00.143Z,52.40
2022-08-17T21:32:26.800Z,52.50
2022-08-17T21:34:53.342Z,52.60
2022-08-17T21:37:19.874Z,52.50
2022-08-17T21:39:46.939Z,52.50
2022-08-17T21:42:13.482Z,52.50
2022-08-17T21:44:40.012Z,52.50
2022-08-17T21:47:06.551Z,52.40
2022-08-17T21:49:37.794Z,52.50
2022-08-17T21:52:04.628Z,52.40
2022-08-17T21:54:31.172Z,52.40
2022-08-17T21:56:57.696Z,52.60
2022-08-17T21:59:24.220Z,52.50
2022-08-17T22:01:50.762Z,52.50
2022-08-17T22:04:17.317Z,52.60
2022-08-17T22:06:52.484Z,52.60
2022-08-17T22:09:23.986Z,52.50
2022-08-17T22:11:50.529Z,52.40
2022-08-17T22:14:17.041Z,52.40
2022-08-17T22:16:44.042Z,52.20
2022-08-17T22:19:10.561Z,52.20
2022-08-17T22:21:37.093Z,52.30
2022-08-17T22:24:03.608Z,52.30
2022-08-17T22:26:30.144Z,52.20
2022-08-17T22:28:56.669Z,52.30
2022-08-17T22:31:23.198Z,52.50
2022-08-17T22:33:49.711Z,52.60
2022-08-17T22:36:16.247Z,52.60
2022-08-17T22:38:44.083Z,52.50
2022-08-17T22:41:10.614Z,52.60
2022-08-17T22:43:37.131Z,52.60
2022-08-17T22:46:03.692Z,52.80
2022-08-17T22:48:30.206Z,52.90
2022-08-17T22:50:56.746Z,52.70
2022-08-17T22:53:23.267Z,52.90
2022-08-17T22:55:49.816Z,52.80
2022-08-17T22:58:16.350Z,52.90
2022-08-17T23:00:42.879Z,52.90
2022-08-17T23:03:09.536Z,52.90
2022-08-17T23:05:36.120Z,53.00
2022-08-17T23:08:02.645Z,53.10
2022-08-17T23:10:29.176Z,53.00
2022-08-17T23:12:55.712Z,53.00
2022-08-17T23:15:22.229Z,53.10
2022-08-17T23:17:48.931Z,53.10
2022-08-17T23:20:15.542Z,53.00
2022-08-17T23:22:51.370Z,53.10
2022-08-17T23:25:19.416Z,53.10
2022-08-17T23:27:47.169Z,53.20
2022-08-17T23:30:13.736Z,53.20
2022-08-17T23:32:43.007Z,53.20
2022-08-17T23:35:20.034Z,53.10
2022-08-17T23:38:05.958Z,53.10
2022-08-17T23:40:32.476Z,53.10
2022-08-17T23:42:59.016Z,53.10
2022-08-17T23:45:25.531Z,53.20
2022-08-17T23:47:52.192Z,53.20
2022-08-17T23:50:19.197Z,53.30
2022-08-17T23:52:46.743Z,53.30
2022-08-17T23:55:13.279Z,53.30
2022-08-17T23:57:39.827Z,53.40
